Private Wetterstation Wechselburg
Wetterdaten: Freitag, 08.03.2013
Datum Zeit Temp. +2m Bodentemp. Temp.+5cm Temp. Wind Windchill X Diff Temp. Feuchte +2m Feuchte +5cm Sonnenschein Luftdruck Regen Wind Richtung Richtung Sonnenschein UV Taupunkt Windchill Windben
08.03.2013 00:00 4,4 C 11,1 C 5,2 C 5,4 C 5,4 C 1,0 C 89 % 91 % 0 % 1005,6 hPa 0,0 l/m 2,4 km/h (1 Bft) O-NO 67 0 min 0,0 UV-I 2,7 C 5,4 C 2,7 km/h (1 Bft)
08.03.2013 00:05 4,4 C 11,1 C 5,2 C 5,4 C 5,4 C 1,0 C 89 % 91 % 0 % 1005,6 hPa 0,0 l/m 2,6 km/h (1 Bft) O-NO 67 0 min 0,0 UV-I 2,7 C 5,4 C 4,5 km/h (1 Bft)
08.03.2013 00:10 4,4 C 11,1 C 5,1 C 5,4 C 5,4 C 1,0 C 89 % 91 % 0 % 1005,6 hPa 0,0 l/m 2,1 km/h (1 Bft) O-NO 67 0 min 0,0 UV-I 2,7 C 5,4 C 0,0 km/h (0 Bft)
08.03.2013 00:15 4,5 C 11,1 C 5,1 C 5,4 C 5,4 C 0,9 C 89 % 91 % 0 % 1005,6 hPa 0,7 l/m 1,3 km/h (1 Bft) N-NO 22 0 min 0,0 UV-I 2,8 C 5,4 C 0,0 km/h (0 Bft)
08.03.2013 00:20 4,4 C 11,1 C 5,1 C 5,4 C 5,4 C 1,0 C 89 % 91 % 0 % 1005,2 hPa 0,0 l/m 1,1 km/h (1 Bft) O 90 0 min 0,0 UV-I 2,7 C 5,4 C 1,8 km/h (1 Bft)
08.03.2013 00:25 4,4 C 11,1 C 5,1 C 5,4 C 5,4 C 1,0 C 89 % 91 % 0 % 1005,2 hPa 0,0 l/m 1,4 km/h (1 Bft) O-NO 67 0 min 0,0 UV-I 2,7 C 5,4 C 2,3 km/h (1 Bft)
08.03.2013 00:30 4,4 C 11,1 C 5,1 C 5,4 C 5,4 C 1,0 C 89 % 91 % 0 % 1005,2 hPa 0,0 l/m 1,1 km/h (1 Bft) NO 45 0 min 0,0 UV-I 2,7 C 5,4 C 1,9 km/h (1 Bft)
08.03.2013 00:35 4,4 C 11,1 C 5,1 C 5,4 C 5,4 C 1,0 C 89 % 91 % 0 % 1005,2 hPa 0,0 l/m 1,3 km/h (1 Bft) O-NO 67 0 min 0,0 UV-I 2,7 C 5,4 C 3,7 km/h (1 Bft)
08.03.2013 00:41 4,3 C 11,1 C 5,1 C 5,4 C 5,4 C 1,1 C 89 % 91 % 0 % 1005,2 hPa 0,0 l/m 2,1 km/h (1 Bft) N 0 0 min 0,0 UV-I 2,7 C 5,4 C 3,7 km/h (1 Bft)
08.03.2013 01:00 4,4 C 11,1 C 5,1 C 5,3 C 5,3 C 0,9 C 90 % 92 % 0 % 1005,2 hPa 0,0 l/m 3,2 km/h (1 Bft) NO 45 0 min 0,0 UV-I 2,9 C 5,3 C 6,8 km/h (2 Bft)
08.03.2013 01:05 4,4 C 11,1 C 5,1 C 5,4 C 5,4 C 1,0 C 90 % 92 % 0 % 1005,2 hPa 0,0 l/m 2,7 km/h (1 Bft) O 90 0 min 0,0 UV-I 2,9 C 5,4 C 2,9 km/h (1 Bft)
08.03.2013 01:10 4,4 C 11,1 C 5,1 C 5,4 C 5,4 C 1,0 C 90 % 92 % 0 % 1005,2 hPa 0,0 l/m 2,6 km/h (1 Bft) O-SO 112 0 min 0,0 UV-I 2,9 C 5,4 C 4,7 km/h (1 Bft)
08.03.2013 01:15 4,4 C 11,1 C 5,1 C 5,4 C 5,4 C 1,0 C 90 % 92 % 0 % 1005,2 hPa 0,0 l/m 2,7 km/h (1 Bft) O 90 0 min 0,0 UV-I 2,9 C 5,4 C 2,4 km/h (1 Bft)
08.03.2013 01:20 4,4 C 11,1 C 5,1 C 5,4 C 5,4 C 1,0 C 90 % 92 % 0 % 1005,4 hPa 0,0 l/m 2,9 km/h (1 Bft) N-NO 22 0 min 0,0 UV-I 2,9 C 5,4 C 2,9 km/h (1 Bft)
08.03.2013 01:25 4,3 C 11,1 C 5,1 C 5,4 C 5,4 C 1,1 C 90 % 92 % 0 % 1005,4 hPa 0,0 l/m 2,9 km/h (1 Bft) O-NO 67 0 min 0,0 UV-I 2,8 C 5,4 C 3,1 km/h (1 Bft)
08.03.2013 01:30 4,3 C 11,1 C 5,1 C 5,4 C 5,4 C 1,1 C 90 % 92 % 0 % 1005,4 hPa 0,0 l/m 3,1 km/h (1 Bft) O-NO 67 0 min 0,0 UV-I 2,8 C 5,4 C 4,0 km/h (1 Bft)
08.03.2013 01:35 4,3 C 11,1 C 5,1 C 5,3 C 5,3 C 1,0 C 90 % 92 % 0 % 1005,4 hPa 0,0 l/m 3,2 km/h (1 Bft) O 90 0 min 0,0 UV-I 2,8 C 5,3 C 4,3 km/h (1 Bft)
08.03.2013 01:40 4,3 C 11,1 C 5,1 C 5,2 C 5,2 C 0,9 C 90 % 92 % 0 % 1005,5 hPa 0,0 l/m 3,5 km/h (1 Bft) O-NO 67 0 min 0,0 UV-I 2,8 C 5,2 C 3,2 km/h (1 Bft)
08.03.2013 01:45 4,3 C 11,1 C 5,0 C 5,3 C 5,3 C 1,0 C 90 % 92 % 0 % 1005,5 hPa 0,0 l/m 3,2 km/h (1 Bft) O 90 0 min 0,0 UV-I 2,8 C 5,3 C 3,2 km/h (1 Bft)
08.03.2013 01:50 4,3 C 11,1 C 5,1 C 5,4 C 5,4 C 1,1 C 90 % 92 % 0 % 1005,5 hPa 0,0 l/m 2,6 km/h (1 Bft) O-NO 67 0 min 0,0 UV-I 2,8 C 5,4 C 2,6 km/h (1 Bft)
08.03.2013 01:55 4,3 C 11,1 C 5,1 C 5,4 C 5,4 C 1,1 C 90 % 92 % 0 % 1005,5 hPa 0,0 l/m 2,7 km/h (1 Bft) O-NO 67 0 min 0,0 UV-I 2,8 C 5,4 C 4,0 km/h (1 Bft)
08.03.2013 02:00 4,3 C 11,1 C 5,1 C 5,3 C 5,3 C 1,0 C 90 % 92 % 0 % 1005,2 hPa 0,0 l/m 2,7 km/h (1 Bft) O-NO 67 0 min 0,0 UV-I 2,8 C 5,3 C 4,3 km/h (1 Bft)
08.03.2013 02:05 4,3 C 11,1 C 5,1 C 5,3 C 5,3 C 1,0 C 90 % 92 % 0 % 1005,2 hPa 0,0 l/m 2,7 km/h (1 Bft) O-NO 67 0 min 0,0 UV-I 2,8 C 5,3 C 5,3 km/h (1 Bft)
08.03.2013 02:10 4,3 C 11,1 C 5,1 C 5,3 C 5,3 C 1,0 C 90 % 92 % 0 % 1005,2 hPa 0,0 l/m 3,1 km/h (1 Bft) NO 45 0 min 0,0 UV-I 2,8 C 5,3 C 3,9 km/h (1 Bft)
08.03.2013 02:15 4,3 C 11,1 C 5,1 C 5,3 C 5,3 C 1,0 C 90 % 92 % 0 % 1005,2 hPa 0,0 l/m 3,1 km/h (1 Bft) O-NO 67 0 min 0,0 UV-I 2,8 C 5,3 C 3,5 km/h (1 Bft)
08.03.2013 02:20 4,3 C 11,1 C 5,1 C 5,1 C 5,1 C 0,8 C 90 % 92 % 0 % 1005,0 hPa 0,0 l/m 3,7 km/h (1 Bft) O-NO 67 0 min 0,0 UV-I 2,8 C 5,1 C 3,4 km/h (1 Bft)
08.03.2013 02:25 4,3 C 11,1 C 5,1 C 5,3 C 5,3 C 1,0 C 90 % 92 % 0 % 1005,0 hPa 0,0 l/m 3,2 km/h (1 Bft) NO 45 0 min 0,0 UV-I 2,8 C 5,3 C 8,5 km/h (2 Bft)
08.03.2013 02:30 4,3 C 11,1 C 5,1 C 5,4 C 5,4 C 1,1 C 90 % 92 % 0 % 1005,0 hPa 0,0 l/m 2,4 km/h (1 Bft) O-NO 67 0 min 0,0 UV-I 2,8 C 5,4 C 2,9 km/h (1 Bft)
08.03.2013 02:35 4,3 C 11,1 C 5,1 C 5,4 C 5,4 C 1,1 C 90 % 92 % 0 % 1005,0 hPa 0,0 l/m 2,4 km/h (1 Bft) O-NO 67 0 min 0,0 UV-I 2,8 C 5,4 C 3,7 km/h (1 Bft)
08.03.2013 02:40 4,3 C 11,1 C 5,1 C 5,4 C 5,4 C 1,1 C 90 % 92 % 0 % 1004,9 hPa 0,0 l/m 3,1 km/h (1 Bft) O-NO 67 0 min 0,0 UV-I 2,8 C 5,4 C 4,5 km/h (1 Bft)
08.03.2013 02:45 4,3 C 11,1 C 5,1 C 5,0 C 5,0 C 0,7 C 90 % 92 % 0 % 1004,9 hPa 0,0 l/m 3,9 km/h (1 Bft) O-NO 67 0 min 0,0 UV-I 2,8 C 5,0 C 5,3 km/h (1 Bft)
08.03.2013 02:50 4,3 C 11,1 C 5,0 C 4,9 C 4,9 C 0,6 C 90 % 92 % 0 % 1004,9 hPa 0,0 l/m 4,0 km/h (1 Bft) O-NO 67 0 min 0,0 UV-I 2,8 C 4,9 C 5,1 km/h (1 Bft)
08.03.2013 02:55 4,3 C 11,1 C 5,1 C 4,8 C 4,8 C 0,5 C 90 % 92 % 0 % 1004,9 hPa 0,0 l/m 4,2 km/h (1 Bft) O-NO 67 0 min 0,0 UV-I 2,8 C 4,8 C 8,4 km/h (2 Bft)
08.03.2013 03:00 4,2 C 11,1 C 5,0 C 4,9 C 4,9 C 0,7 C 90 % 92 % 0 % 1004,9 hPa 0,0 l/m 4,0 km/h (1 Bft) O-NO 67 0 min 0,0 UV-I 2,7 C 4,9 C 2,9 km/h (1 Bft)
08.03.2013 03:05 4,3 C 11,1 C 5,0 C 4,8 C 4,8 C 0,5 C 90 % 92 % 0 % 1004,9 hPa 0,0 l/m 4,2 km/h (1 Bft) O-NO 67 0 min 0,0 UV-I 2,8 C 4,8 C 6,8 km/h (2 Bft)
08.03.2013 03:10 4,3 C 11,1 C 5,1 C 4,7 C 4,7 C 0,4 C 90 % 92 % 0 % 1004,9 hPa 0,0 l/m 4,8 km/h (1 Bft) O-NO 67 0 min 0,0 UV-I 2,8 C 3,8 C 9,2 km/h (2 Bft)
08.03.2013 03:15 4,3 C 11,1 C 5,0 C 4,7 C 4,7 C 0,4 C 90 % 92 % 0 % 1004,9 hPa 0,0 l/m 5,0 km/h (1 Bft) O-NO 67 0 min 0,0 UV-I 2,8 C 3,7 C 9,5 km/h (2 Bft)
08.03.2013 03:20 4,3 C 11,1 C 5,1 C 4,6 C 4,6 C 0,3 C 90 % 92 % 0 % 1004,8 hPa 0,0 l/m 5,1 km/h (1 Bft) O-SO 112 0 min 0,0 UV-I 2,8 C 3,6 C 5,1 km/h (1 Bft)
08.03.2013 03:25 4,3 C 11,1 C 5,1 C 4,3 C 4,3 C 0,0 C 90 % 92 % 0 % 1004,8 hPa 0,0 l/m 6,0 km/h (2 Bft) NO 45 0 min 0,0 UV-I 2,8 C 2,9 C 10,3 km/h (2 Bft)
08.03.2013 03:30 4,3 C 11,1 C 5,1 C 4,3 C 4,2 C 0,0 C 90 % 92 % 0 % 1004,8 hPa 0,0 l/m 6,1 km/h (2 Bft) NO 45 0 min 0,0 UV-I 2,8 C 2,8 C 8,2 km/h (2 Bft)
08.03.2013 03:35 4,3 C 11,1 C 5,0 C 4,3 C 4,2 C 0,0 C 90 % 92 % 0 % 1004,8 hPa 0,0 l/m 6,1 km/h (2 Bft) O-NO 67 0 min 0,0 UV-I 2,8 C 2,8 C 11,9 km/h (2 Bft)
08.03.2013 03:40 4,3 C 11,1 C 5,1 C 4,2 C 4,0 C 0,0 C 90 % 92 % 0 % 1004,6 hPa 0,0 l/m 6,9 km/h (2 Bft) O-NO 67 0 min 0,0 UV-I 2,8 C 2,3 C 10,9 km/h (2 Bft)
08.03.2013 03:45 4,3 C 11,1 C 5,0 C 4,4 C 3,8 C 0,1 C 90 % 92 % 0 % 1004,6 hPa 0,0 l/m 7,7 km/h (2 Bft) O-SO 112 0 min 0,0 UV-I 2,8 C 1,8 C 8,2 km/h (2 Bft)
08.03.2013 03:50 4,2 C 11,1 C 5,1 C 4,3 C 3,7 C 0,1 C 90 % 92 % 0 % 1004,6 hPa 0,0 l/m 8,0 km/h (2 Bft) O 90 0 min 0,0 UV-I 2,7 C 1,6 C 9,2 km/h (2 Bft)
08.03.2013 03:55 4,3 C 11,1 C 5,1 C 4,1 C 3,8 C 0,0 C 90 % 92 % 0 % 1004,6 hPa 0,0 l/m 7,4 km/h (2 Bft) O-NO 67 0 min 0,0 UV-I 2,8 C 1,9 C 10,9 km/h (2 Bft)
08.03.2013 04:00 4,3 C 11,1 C 5,0 C 4,1 C 3,8 C 0,0 C 90 % 92 % 0 % 1004,7 hPa 0,0 l/m 7,4 km/h (2 Bft) O-NO 67 0 min 0,0 UV-I 2,8 C 1,9 C 8,2 km/h (2 Bft)
08.03.2013 04:05 4,3 C 11,1 C 5,1 C 4,2 C 4,1 C 0,0 C 90 % 92 % 0 % 1004,7 hPa 0,0 l/m 6,4 km/h (2 Bft) NO 45 0 min 0,0 UV-I 2,8 C 2,6 C 8,4 km/h (2 Bft)
08.03.2013 04:10 4,3 C 11,0 C 5,1 C 4,3 C 4,2 C 0,0 C 90 % 92 % 0 % 1004,7 hPa 0,0 l/m 6,1 km/h (2 Bft) O-NO 67 0 min 0,0 UV-I 2,8 C 2,8 C 7,9 km/h (2 Bft)
08.03.2013 04:15 4,2 C 11,0 C 5,1 C 4,3 C 4,3 C 0,1 C 90 % 92 % 0 % 1004,7 hPa 0,0 l/m 6,0 km/h (2 Bft) O 90 0 min 0,0 UV-I 2,7 C 2,9 C 7,1 km/h (2 Bft)
08.03.2013 04:20 4,2 C 11,0 C 5,1 C 4,3 C 4,3 C 0,1 C 90 % 92 % 0 % 1004,6 hPa 0,0 l/m 6,0 km/h (2 Bft) O-NO 67 0 min 0,0 UV-I 2,7 C 2,9 C 5,3 km/h (1 Bft)
08.03.2013 04:25 4,2 C 11,0 C 5,1 C 4,3 C 4,3 C 0,1 C 90 % 92 % 0 % 1004,6 hPa 0,0 l/m 5,8 km/h (2 Bft) NO 45 0 min 0,0 UV-I 2,7 C 3,0 C 6,1 km/h (2 Bft)
08.03.2013 04:30 4,2 C 11,0 C 5,0 C 4,3 C 4,3 C 0,1 C 90 % 92 % 0 % 1004,6 hPa 0,0 l/m 5,8 km/h (2 Bft) O-NO 67 0 min 0,0 UV-I 2,7 C 3,0 C 8,2 km/h (2 Bft)
08.03.2013 04:35 4,3 C 11,0 C 5,0 C 4,3 C 4,3 C 0,0 C 90 % 92 % 0 % 1004,6 hPa 0,0 l/m 5,8 km/h (2 Bft) O-SO 112 0 min 0,0 UV-I 2,8 C 3,0 C 6,1 km/h (2 Bft)
08.03.2013 04:40 4,2 C 11,0 C 5,0 C 4,4 C 4,4 C 0,2 C 90 % 92 % 0 % 1004,6 hPa 0,0 l/m 5,6 km/h (1 Bft) O-SO 112 0 min 0,0 UV-I 2,7 C 3,2 C 6,1 km/h (2 Bft)
08.03.2013 04:45 4,3 C 11,0 C 5,0 C 4,3 C 4,3 C 0,0 C 90 % 92 % 0 % 1004,6 hPa 0,0 l/m 6,0 km/h (2 Bft) O 90 0 min 0,0 UV-I 2,8 C 2,9 C 7,7 km/h (2 Bft)
08.03.2013 04:50 4,3 C 11,0 C 5,1 C 4,2 C 4,1 C 0,0 C 90 % 92 % 0 % 1004,6 hPa 0,0 l/m 6,4 km/h (2 Bft) O 90 0 min 0,0 UV-I 2,8 C 2,6 C 7,9 km/h (2 Bft)
08.03.2013 04:55 4,3 C 11,0 C 5,0 C 4,3 C 4,3 C 0,0 C 90 % 92 % 0 % 1004,6 hPa 0,0 l/m 5,8 km/h (2 Bft) O 90 0 min 0,0 UV-I 2,8 C 3,0 C 12,4 km/h (3 Bft)
08.03.2013 05:00 4,3 C 11,0 C 5,1 C 5,0 C 5,0 C 0,7 C 90 % 92 % 0 % 1005,0 hPa 0,0 l/m 4,2 km/h (1 Bft) O-NO 67 0 min 0,0 UV-I 2,8 C 5,0 C 8,0 km/h (2 Bft)
08.03.2013 05:05 4,3 C 11,0 C 5,1 C 4,8 C 4,8 C 0,5 C 90 % 92 % 0 % 1005,0 hPa 0,0 l/m 4,2 km/h (1 Bft) O-NO 67 0 min 0,0 UV-I 2,8 C 4,8 C 5,5 km/h (1 Bft)
08.03.2013 05:10 4,3 C 11,0 C 5,1 C 4,7 C 4,7 C 0,4 C 90 % 92 % 0 % 1005,0 hPa 0,0 l/m 4,5 km/h (1 Bft) O-SO 112 0 min 0,0 UV-I 2,8 C 4,7 C 6,9 km/h (2 Bft)
08.03.2013 05:15 4,3 C 11,0 C 5,1 C 4,7 C 4,7 C 0,4 C 90 % 92 % 0 % 1005,0 hPa 0,0 l/m 4,5 km/h (1 Bft) N-NO 22 0 min 0,0 UV-I 2,8 C 4,7 C 4,3 km/h (1 Bft)
08.03.2013 05:20 4,3 C 11,0 C 5,1 C 4,7 C 4,7 C 0,4 C 90 % 92 % 0 % 1005,0 hPa 0,0 l/m 4,7 km/h (1 Bft) NO 45 0 min 0,0 UV-I 2,8 C 3,9 C 7,2 km/h (2 Bft)
08.03.2013 05:25 4,3 C 11,0 C 5,1 C 5,1 C 5,1 C 0,8 C 90 % 92 % 0 % 1005,0 hPa 0,0 l/m 3,7 km/h (1 Bft) O-NO 67 0 min 0,0 UV-I 2,8 C 5,1 C 1,8 km/h (1 Bft)
08.03.2013 05:30 4,2 C 11,0 C 5,1 C 4,9 C 4,9 C 0,7 C 90 % 92 % 0 % 1005,0 hPa 0,0 l/m 4,0 km/h (1 Bft) NO 45 0 min 0,0 UV-I 2,7 C 4,9 C 6,0 km/h (2 Bft)
08.03.2013 05:35 4,2 C 11,0 C 5,0 C 5,2 C 5,2 C 1,0 C 90 % 92 % 0 % 1005,0 hPa 0,0 l/m 3,5 km/h (1 Bft) NO 45 0 min 0,0 UV-I 2,7 C 5,2 C 2,4 km/h (1 Bft)
08.03.2013 05:40 4,2 C 11,0 C 4,9 C 5,4 C 5,4 C 1,2 C 90 % 92 % 0 % 1005,1 hPa 0,0 l/m 2,3 km/h (1 Bft) O 90 0 min 0,0 UV-I 2,7 C 5,4 C 2,1 km/h (1 Bft)
08.03.2013 05:45 4,1 C 11,0 C 4,9 C 5,3 C 5,3 C 1,2 C 90 % 92 % 0 % 1005,1 hPa 0,0 l/m 0,8 km/h (0 Bft) N-NO 22 0 min 0,0 UV-I 2,6 C 5,3 C 0,0 km/h (0 Bft)
08.03.2013 05:50 4,1 C 11,0 C 4,9 C 5,3 C 5,3 C 1,2 C 90 % 92 % 0 % 1005,1 hPa 0,0 l/m 0,5 km/h (0 Bft) O-NO 67 0 min 0,0 UV-I 2,6 C 5,3 C 6,1 km/h (2 Bft)
08.03.2013 05:55 4,1 C 11,0 C 4,9 C 5,3 C 5,3 C 1,2 C 90 % 92 % 0 % 1005,1 hPa 0,0 l/m 0,5 km/h (0 Bft) NO 45 0 min 0,0 UV-I 2,6 C 5,3 C 0,0 km/h (0 Bft)
08.03.2013 06:00 4,1 C 11,0 C 4,9 C 5,3 C 5,3 C 1,2 C 90 % 92 % 0 % 1004,9 hPa 0,0 l/m 0,6 km/h (0 Bft) S-SW 202 0 min 0,0 UV-I 2,6 C 5,3 C 0,0 km/h (0 Bft)
08.03.2013 06:05 4,1 C 11,0 C 4,9 C 5,2 C 5,2 C 1,1 C 90 % 92 % 0 % 1004,9 hPa 0,0 l/m 1,4 km/h (1 Bft) O 90 0 min 0,0 UV-I 2,6 C 5,2 C 4,3 km/h (1 Bft)
08.03.2013 06:10 4,1 C 11,0 C 4,9 C 5,2 C 5,2 C 1,1 C 90 % 92 % 0 % 1004,9 hPa 0,0 l/m 2,9 km/h (1 Bft) SW 225 0 min 0,0 UV-I 2,6 C 5,2 C 0,0 km/h (0 Bft)
08.03.2013 06:15 4,0 C 11,0 C 4,8 C 5,2 C 5,2 C 1,2 C 90 % 92 % 0 % 1004,9 hPa 0,0 l/m 3,1 km/h (1 Bft) O-NO 67 0 min 0,0 UV-I 2,5 C 5,2 C 1,6 km/h (1 Bft)
08.03.2013 06:20 4,1 C 11,0 C 4,8 C 5,2 C 5,2 C 1,1 C 90 % 92 % 0 % 1004,9 hPa 0,0 l/m 1,6 km/h (1 Bft) N-NO 22 0 min 0,0 UV-I 2,6 C 5,2 C 2,6 km/h (1 Bft)
08.03.2013 06:25 3,9 C 11,0 C 4,8 C 5,1 C 5,1 C 1,2 C 90 % 92 % 0 % 1004,9 hPa 0,0 l/m 0,8 km/h (0 Bft) N-NW 337 0 min 0,0 UV-I 2,4 C 5,1 C 1,9 km/h (1 Bft)
08.03.2013 06:30 3,9 C 11,0 C 4,8 C 5,0 C 5,0 C 1,1 C 90 % 93 % 0 % 1004,9 hPa 0,0 l/m 1,0 km/h (0 Bft) O-SO 112 0 min 0,0 UV-I 2,4 C 5,0 C 0,0 km/h (0 Bft)
08.03.2013 06:35 3,9 C 11,0 C 4,7 C 5,0 C 5,0 C 1,1 C 90 % 93 % 0 % 1004,9 hPa 0,0 l/m 0,6 km/h (0 Bft) O-NO 67 0 min 0,0 UV-I 2,4 C 5,0 C 0,0 km/h (0 Bft)
08.03.2013 06:46 3,9 C 11,0 C 4,7 C 5,0 C 5,0 C 1,1 C 90 % 93 % 0 % 1004,7 hPa 0,0 l/m 0,6 km/h (0 Bft) N 0 0 min 0,0 UV-I 2,4 C 5,0 C 0,0 km/h (0 Bft)
08.03.2013 07:00 3,7 C 11,0 C 4,5 C 4,8 C 4,8 C 1,1 C 90 % 92 % 29 % 1004,2 hPa 0,0 l/m 1,9 km/h (1 Bft) O-NO 67 14 min 0,0 UV-I 2,2 C 4,8 C 2,3 km/h (1 Bft)
08.03.2013 07:05 3,7 C 11,0 C 4,5 C 4,8 C 4,8 C 1,1 C 90 % 92 % 29 % 1004,2 hPa 0,0 l/m 1,3 km/h (1 Bft) NO 45 5 min 0,0 UV-I 2,2 C 4,8 C 1,9 km/h (1 Bft)
08.03.2013 07:10 3,6 C 11,0 C 4,5 C 4,8 C 4,8 C 1,2 C 90 % 92 % 32 % 1004,2 hPa 0,0 l/m 1,1 km/h (1 Bft) O-SO 112 5 min 0,0 UV-I 2,1 C 4,8 C 3,2 km/h (1 Bft)
08.03.2013 07:15 3,6 C 11,0 C 4,5 C 4,8 C 4,8 C 1,2 C 90 % 92 % 32 % 1004,2 hPa 0,0 l/m 1,1 km/h (1 Bft) O-SO 112 5 min 0,0 UV-I 2,1 C 4,8 C 0,0 km/h (0 Bft)
08.03.2013 07:20 3,7 C 11,0 C 4,5 C 4,8 C 4,8 C 1,1 C 90 % 92 % 29 % 1004,3 hPa 0,0 l/m 1,0 km/h (0 Bft) SO 135 5 min 0,0 UV-I 2,2 C 4,8 C 0,0 km/h (0 Bft)
08.03.2013 07:25 3,6 C 11,0 C 4,5 C 4,8 C 4,8 C 1,2 C 90 % 92 % 32 % 1004,3 hPa 0,0 l/m 1,0 km/h (0 Bft) N-NO 22 5 min 0,0 UV-I 2,1 C 4,8 C 3,5 km/h (1 Bft)
08.03.2013 07:30 3,7 C 11,0 C 4,5 C 4,8 C 4,8 C 1,1 C 91 % 92 % 29 % 1004,3 hPa 0,0 l/m 1,0 km/h (0 Bft) NW 315 0 min 0,0 UV-I 2,4 C 4,8 C 1,9 km/h (1 Bft)
08.03.2013 07:35 3,6 C 11,0 C 4,5 C 4,8 C 4,8 C 1,2 C 91 % 92 % 32 % 1004,3 hPa 0,0 l/m 1,6 km/h (1 Bft) O-NO 67 0 min 0,0 UV-I 2,3 C 4,8 C 4,5 km/h (1 Bft)
08.03.2013 07:40 3,6 C 11,0 C 4,7 C 5,0 C 5,0 C 1,4 C 91 % 93 % 37 % 1004,4 hPa 0,0 l/m 2,6 km/h (1 Bft) NW 315 0 min 0,0 UV-I 2,3 C 5,0 C 4,5 km/h (1 Bft)
08.03.2013 07:45 3,6 C 11,0 C 4,5 C 4,8 C 4,8 C 1,2 C 91 % 92 % 32 % 1004,4 hPa 0,0 l/m 3,4 km/h (1 Bft) O 90 0 min 0,0 UV-I 2,3 C 4,8 C 7,7 km/h (2 Bft)
08.03.2013 07:50 3,6 C 11,0 C 4,6 C 4,2 C 4,2 C 0,6 C 91 % 93 % 16 % 1004,4 hPa 0,0 l/m 4,7 km/h (1 Bft) O 90 0 min 0,0 UV-I 2,3 C 3,3 C 9,0 km/h (2 Bft)
08.03.2013 07:55 3,5 C 11,0 C 4,5 C 3,5 C 3,4 C 0,0 C 91 % 92 % 0 % 1004,4 hPa 0,0 l/m 6,0 km/h (2 Bft) NO 45 0 min 0,0 UV-I 2,2 C 1,9 C 4,5 km/h (1 Bft)
08.03.2013 08:00 3,5 C 11,0 C 4,4 C 3,9 C 3,9 C 0,4 C 91 % 92 % 11 % 1004,3 hPa 0,0 l/m 4,8 km/h (1 Bft) O 90 0 min 0,0 UV-I 2,2 C 2,9 C 12,1 km/h (2 Bft)
08.03.2013 08:05 3,4 C 11,0 C 4,5 C 4,2 C 4,2 C 0,8 C 91 % 92 % 21 % 1004,3 hPa 0,0 l/m 4,0 km/h (1 Bft) O-NO 67 0 min 0,0 UV-I 2,1 C 4,2 C 2,1 km/h (1 Bft)
08.03.2013 08:10 3,5 C 11,0 C 4,4 C 3,8 C 3,8 C 0,3 C 91 % 92 % 8 % 1004,3 hPa 0,0 l/m 5,0 km/h (1 Bft) N-NO 22 0 min 0,0 UV-I 2,2 C 2,7 C 6,6 km/h (2 Bft)
08.03.2013 08:15 3,5 C 11,0 C 4,3 C 4,0 C 4,0 C 0,5 C 91 % 92 % 13 % 1004,3 hPa 0,0 l/m 4,2 km/h (1 Bft) O-NO 67 0 min 0,0 UV-I 2,2 C 4,0 C 13,4 km/h (3 Bft)
08.03.2013 08:20 3,5 C 11,0 C 4,3 C 3,4 C 3,1 C 0,0 C 91 % 92 % 0 % 1004,2 hPa 0,0 l/m 6,3 km/h (2 Bft) O-NO 67 0 min 0,0 UV-I 2,2 C 1,4 C 13,2 km/h (3 Bft)
08.03.2013 08:25 3,3 C 11,0 C 4,3 C 3,1 C 2,8 C 0,0 C 91 % 92 % 0 % 1004,2 hPa 0,0 l/m 6,9 km/h (2 Bft) O-SO 112 0 min 0,0 UV-I 2,0 C 0,9 C 9,2 km/h (2 Bft)
08.03.2013 08:30 3,3 C 11,0 C 4,3 C 3,2 C 2,9 C 0,0 C 91 % 92 % 0 % 1004,2 hPa 0,0 l/m 6,8 km/h (2 Bft) O 90 0 min 0,0 UV-I 2,0 C 1,0 C 8,2 km/h (2 Bft)
08.03.2013 08:35 3,3 C 10,9 C 4,3 C 3,3 C 3,2 C 0,0 C 91 % 92 % 0 % 1004,2 hPa 0,0 l/m 6,0 km/h (2 Bft) O-NO 67 0 min 0,0 UV-I 2,0 C 1,7 C 7,9 km/h (2 Bft)
08.03.2013 08:40 3,3 C 10,9 C 4,3 C 3,3 C 3,3 C 0,0 C 91 % 92 % 0 % 1004,6 hPa 0,0 l/m 5,6 km/h (1 Bft) NO 45 0 min 0,0 UV-I 2,0 C 1,9 C 13,8 km/h (3 Bft)
08.03.2013 08:45 3,3 C 10,9 C 4,2 C 3,3 C 2,4 C 0,0 C 91 % 92 % 0 % 1004,6 hPa 0,0 l/m 7,9 km/h (2 Bft) O-NO 67 0 min 0,0 UV-I 2,0 C 0,1 C 14,0 km/h (3 Bft)
08.03.2013 08:50 3,2 C 10,9 C 4,3 C 3,0 C 2,5 C 0,0 C 91 % 92 % 0 % 1004,6 hPa 0,0 l/m 7,6 km/h (2 Bft) O-NO 67 0 min 0,0 UV-I 1,9 C 0,3 C 3,7 km/h (1 Bft)
08.03.2013 08:55 3,2 C 10,9 C 4,3 C 3,3 C 3,3 C 0,1 C 91 % 92 % 3 % 1004,6 hPa 0,0 l/m 5,6 km/h (1 Bft) NO 45 0 min 0,0 UV-I 1,9 C 1,9 C 6,4 km/h (2 Bft)
08.03.2013 09:00 3,2 C 10,9 C 4,4 C 4,3 C 4,3 C 1,1 C 91 % 92 % 29 % 1004,8 hPa 0,0 l/m 3,4 km/h (1 Bft) O-NO 67 0 min 0,0 UV-I 1,9 C 4,3 C 4,8 km/h (1 Bft)
08.03.2013 09:05 3,2 C 10,9 C 4,3 C 3,8 C 3,8 C 0,6 C 91 % 92 % 16 % 1004,8 hPa 0,0 l/m 4,2 km/h (1 Bft) N-NO 22 0 min 0,0 UV-I 1,9 C 3,8 C 6,9 km/h (2 Bft)
08.03.2013 09:10 3,2 C 10,9 C 4,3 C 3,9 C 3,9 C 0,7 C 91 % 92 % 18 % 1004,8 hPa 0,0 l/m 4,0 km/h (1 Bft) SO 135 0 min 0,0 UV-I 1,9 C 3,9 C 2,3 km/h (1 Bft)
08.03.2013 09:15 3,2 C 10,9 C 4,4 C 4,6 C 4,6 C 1,4 C 91 % 92 % 37 % 1004,8 hPa 0,0 l/m 2,7 km/h (1 Bft) O-NO 67 0 min 0,0 UV-I 1,9 C 4,6 C 2,1 km/h (1 Bft)
08.03.2013 09:20 3,1 C 10,9 C 4,3 C 4,3 C 4,3 C 1,2 C 91 % 92 % 32 % 1004,7 hPa 0,0 l/m 3,5 km/h (1 Bft) O-SO 112 0 min 0,0 UV-I 1,8 C 4,3 C 2,4 km/h (1 Bft)
08.03.2013 09:25 3,2 C 10,9 C 4,4 C 4,0 C 4,0 C 0,8 C 91 % 92 % 21 % 1004,7 hPa 0,0 l/m 4,2 km/h (1 Bft) O-NO 67 0 min 0,0 UV-I 1,9 C 4,0 C 3,9 km/h (1 Bft)
08.03.2013 09:30 3,1 C 10,9 C 4,3 C 4,0 C 4,0 C 0,9 C 91 % 92 % 24 % 1004,7 hPa 0,0 l/m 4,2 km/h (1 Bft) O-NO 67 0 min 0,0 UV-I 1,8 C 4,0 C 5,3 km/h (1 Bft)
08.03.2013 09:35 3,1 C 10,9 C 4,3 C 3,8 C 3,8 C 0,7 C 91 % 92 % 18 % 1004,7 hPa 0,0 l/m 4,7 km/h (1 Bft) O-SO 112 0 min 0,0 UV-I 1,8 C 2,8 C 3,2 km/h (1 Bft)
08.03.2013 09:40 3,1 C 10,9 C 4,3 C 4,3 C 4,3 C 1,2 C 91 % 92 % 32 % 1004,8 hPa 0,0 l/m 3,5 km/h (1 Bft) O 90 0 min 0,0 UV-I 1,8 C 4,3 C 4,0 km/h (1 Bft)
08.03.2013 09:45 3,1 C 10,9 C 4,2 C 4,5 C 4,5 C 1,4 C 91 % 92 % 37 % 1004,8 hPa 0,0 l/m 2,7 km/h (1 Bft) O-NO 67 0 min 0,0 UV-I 1,8 C 4,5 C 1,8 km/h (1 Bft)
08.03.2013 09:50 3,1 C 10,9 C 4,3 C 4,4 C 4,4 C 1,3 C 91 % 92 % 34 % 1004,8 hPa 0,0 l/m 3,1 km/h (1 Bft) O-NO 67 0 min 0,0 UV-I 1,8 C 4,4 C 7,7 km/h (2 Bft)
08.03.2013 09:55 2,9 C 10,9 C 4,2 C 4,3 C 4,3 C 1,4 C 91 % 92 % 37 % 1004,8 hPa 0,0 l/m 3,4 km/h (1 Bft) O 90 0 min 0,0 UV-I 1,6 C 4,3 C 8,4 km/h (2 Bft)
08.03.2013 10:00 2,9 C 10,9 C 4,3 C 3,3 C 3,3 C 0,4 C 91 % 92 % 11 % 1004,8 hPa 0,0 l/m 5,5 km/h (1 Bft) O 90 0 min 0,0 UV-I 1,6 C 2,0 C 3,9 km/h (1 Bft)
08.03.2013 10:05 3,0 C 10,9 C 4,3 C 3,2 C 3,2 C 0,2 C 91 % 92 % 5 % 1004,8 hPa 0,0 l/m 6,1 km/h (2 Bft) O 90 0 min 0,0 UV-I 1,7 C 1,6 C 10,9 km/h (2 Bft)
08.03.2013 10:10 2,9 C 10,9 C 4,2 C 3,2 C 3,2 C 0,3 C 91 % 92 % 8 % 1004,8 hPa 0,0 l/m 6,1 km/h (2 Bft) O-NO 67 0 min 0,0 UV-I 1,6 C 1,6 C 3,9 km/h (1 Bft)
08.03.2013 10:15 2,9 C 11,1 C 4,2 C 3,2 C 3,2 C 0,3 C 91 % 92 % 8 % 1004,8 hPa 0,0 l/m 6,4 km/h (2 Bft) O 90 0 min 0,1 UV-I 1,6 C 1,5 C 8,9 km/h (2 Bft)
08.03.2013 10:20 3,0 C 11,2 C 4,2 C 3,7 C 3,7 C 0,7 C 91 % 92 % 18 % 1004,8 hPa 0,0 l/m 5,5 km/h (1 Bft) O-NO 67 0 min 0,1 UV-I 1,7 C 2,4 C 8,2 km/h (2 Bft)
08.03.2013 10:25 2,9 C 11,2 C 4,2 C 4,0 C 4,0 C 1,1 C 91 % 92 % 29 % 1004,8 hPa 0,0 l/m 4,5 km/h (1 Bft) O 90 0 min 0,1 UV-I 1,6 C 4,0 C 9,7 km/h (2 Bft)
08.03.2013 10:30 2,9 C 11,2 C 4,3 C 3,9 C 3,9 C 1,0 C 91 % 92 % 26 % 1004,8 hPa 0,0 l/m 4,8 km/h (1 Bft) O-NO 67 0 min 0,1 UV-I 1,6 C 2,9 C 6,8 km/h (2 Bft)
08.03.2013 10:35 2,9 C 11,2 C 4,3 C 3,7 C 3,7 C 0,8 C 91 % 92 % 21 % 1004,8 hPa 0,0 l/m 5,5 km/h (1 Bft) O-NO 67 0 min 0,1 UV-I 1,6 C 2,4 C 7,6 km/h (2 Bft)
08.03.2013 10:40 2,9 C 11,2 C 4,3 C 3,8 C 3,8 C 0,9 C 91 % 91 % 24 % 1004,9 hPa 0,0 l/m 5,1 km/h (1 Bft) O-NO 67 0 min 0,1 UV-I 1,6 C 2,7 C 4,5 km/h (1 Bft)
08.03.2013 10:45 2,8 C 11,2 C 4,3 C 3,7 C 3,7 C 0,9 C 90 % 91 % 24 % 1004,9 hPa 0,0 l/m 5,1 km/h (1 Bft) O 90 0 min 0,0 UV-I 1,3 C 2,6 C 7,9 km/h (2 Bft)
08.03.2013 10:50 2,8 C 11,2 C 4,1 C 3,4 C 3,4 C 0,6 C 90 % 91 % 16 % 1004,9 hPa 0,0 l/m 5,6 km/h (1 Bft) O-NO 67 0 min 0,0 UV-I 1,3 C 2,0 C 6,9 km/h (2 Bft)
08.03.2013 10:55 2,9 C 11,2 C 4,1 C 3,1 C 3,1 C 0,2 C 90 % 91 % 5 % 1004,9 hPa 0,0 l/m 6,1 km/h (2 Bft) O-NO 67 0 min 0,0 UV-I 1,4 C 1,5 C 7,7 km/h (2 Bft)
08.03.2013 11:00 2,8 C 11,2 C 4,0 C 2,7 C 2,6 C 0,0 C 90 % 91 % 0 % 1006,0 hPa 0,0 l/m 7,4 km/h (2 Bft) O-NO 67 0 min 0,0 UV-I 1,3 C 0,5 C 6,1 km/h (2 Bft)
08.03.2013 11:05 2,9 C 11,2 C 4,1 C 2,9 C 2,9 C 0,0 C 90 % 91 % 0 % 1006,0 hPa 0,0 l/m 6,6 km/h (2 Bft) O-NO 67 0 min 0,0 UV-I 1,4 C 1,1 C 4,7 km/h (1 Bft)
08.03.2013 11:10 2,8 C 11,2 C 4,1 C 3,4 C 3,4 C 0,6 C 90 % 91 % 16 % 1006,0 hPa 0,0 l/m 5,6 km/h (1 Bft) O-NO 67 0 min 0,0 UV-I 1,3 C 2,0 C 8,5 km/h (2 Bft)
08.03.2013 11:15 2,7 C 11,2 C 4,0 C 2,9 C 2,9 C 0,2 C 90 % 91 % 5 % 1006,0 hPa 0,0 l/m 6,6 km/h (2 Bft) O-NO 67 0 min 0,1 UV-I 1,2 C 1,1 C 7,4 km/h (2 Bft)
08.03.2013 11:20 2,8 C 11,2 C 4,1 C 2,9 C 2,9 C 0,1 C 90 % 91 % 3 % 1005,4 hPa 0,0 l/m 7,2 km/h (2 Bft) O 90 0 min 0,1 UV-I 1,3 C 0,9 C 6,4 km/h (2 Bft)
08.03.2013 11:25 2,9 C 11,2 C 4,1 C 3,4 C 3,4 C 0,5 C 90 % 91 % 13 % 1005,4 hPa 0,0 l/m 5,8 km/h (2 Bft) O-NO 67 0 min 0,1 UV-I 1,4 C 2,0 C 5,8 km/h (2 Bft)
08.03.2013 11:30 2,8 C 11,2 C 4,3 C 3,7 C 3,7 C 0,9 C 90 % 91 % 24 % 1005,4 hPa 0,0 l/m 5,3 km/h (1 Bft) O-SO 112 0 min 0,1 UV-I 1,3 C 2,5 C 6,9 km/h (2 Bft)
08.03.2013 11:35 2,8 C 11,2 C 4,3 C 3,9 C 3,9 C 1,1 C 90 % 91 % 29 % 1005,4 hPa 0,0 l/m 4,7 km/h (1 Bft) O-NO 67 0 min 0,1 UV-I 1,3 C 3,0 C 4,3 km/h (1 Bft)
08.03.2013 11:40 2,8 C 11,2 C 4,1 C 4,0 C 4,0 C 1,2 C 90 % 91 % 32 % 1005,2 hPa 0,0 l/m 4,2 km/h (1 Bft) O 90 0 min 0,1 UV-I 1,3 C 4,0 C 4,7 km/h (1 Bft)
08.03.2013 11:45 2,7 C 11,1 C 4,1 C 3,8 C 3,8 C 1,1 C 90 % 91 % 29 % 1005,2 hPa 0,0 l/m 4,7 km/h (1 Bft) O-NO 67 0 min 0,1 UV-I 1,2 C 2,8 C 6,4 km/h (2 Bft)
08.03.2013 11:50 2,7 C 11,1 C 4,0 C 3,4 C 3,4 C 0,7 C 90 % 91 % 18 % 1005,2 hPa 0,0 l/m 5,1 km/h (1 Bft) O-NO 67 0 min 0,1 UV-I 1,2 C 2,2 C 8,2 km/h (2 Bft)
08.03.2013 11:55 2,7 C 11,1 C 3,9 C 3,1 C 3,1 C 0,4 C 90 % 91 % 11 % 1005,2 hPa 0,0 l/m 5,8 km/h (2 Bft) O-NO 67 0 min 0,1 UV-I 1,2 C 1,6 C 7,7 km/h (2 Bft)
08.03.2013 12:00 2,5 C 11,1 C 3,9 C 2,8 C 2,8 C 0,3 C 90 % 91 % 8 % 1005,4 hPa 0,0 l/m 6,3 km/h (2 Bft) O-NO 67 0 min 0,2 UV-I 1,0 C 1,1 C 6,8 km/h (2 Bft)
08.03.2013 12:05 2,4 C 11,2 C 3,9 C 2,8 C 2,8 C 0,4 C 90 % 91 % 11 % 1005,4 hPa 0,0 l/m 6,1 km/h (2 Bft) NO 45 0 min 0,1 UV-I 0,9 C 1,2 C 4,2 km/h (1 Bft)
08.03.2013 12:10 2,5 C 11,2 C 3,9 C 2,9 C 2,9 C 0,4 C 90 % 91 % 11 % 1005,4 hPa 0,0 l/m 5,8 km/h (2 Bft) O-NO 67 0 min 0,1 UV-I 1,0 C 1,4 C 5,1 km/h (1 Bft)
08.03.2013 12:15 2,5 C 11,1 C 4,0 C 2,9 C 2,9 C 0,4 C 90 % 91 % 11 % 1005,4 hPa 0,0 l/m 5,6 km/h (1 Bft) O-NO 67 0 min 0,2 UV-I 1,0 C 1,5 C 10,8 km/h (2 Bft)
08.03.2013 12:20 2,5 C 11,1 C 4,0 C 2,8 C 2,8 C 0,3 C 90 % 91 % 8 % 1005,6 hPa 0,0 l/m 6,3 km/h (2 Bft) O 90 0 min 0,2 UV-I 1,0 C 1,1 C 8,0 km/h (2 Bft)
08.03.2013 12:25 2,5 C 11,1 C 4,0 C 2,9 C 2,9 C 0,4 C 90 % 91 % 11 % 1005,6 hPa 0,0 l/m 6,6 km/h (2 Bft) O-NO 67 0 min 0,2 UV-I 1,0 C 1,1 C 10,9 km/h (2 Bft)
08.03.2013 12:30 2,5 C 11,1 C 4,0 C 3,1 C 3,1 C 0,6 C 90 % 91 % 16 % 1005,6 hPa 0,0 l/m 6,6 km/h (2 Bft) O-NO 67 0 min 0,3 UV-I 1,0 C 1,3 C 5,3 km/h (1 Bft)
08.03.2013 12:35 2,6 C 11,1 C 4,2 C 3,1 C 3,1 C 0,5 C 90 % 90 % 13 % 1005,6 hPa 0,0 l/m 6,8 km/h (2 Bft) O-NO 67 0 min 0,2 UV-I 1,1 C 1,3 C 4,8 km/h (1 Bft)
08.03.2013 12:47 2,7 C 11,1 C 4,0 C 3,3 C 3,3 C 0,6 C 90 % 90 % 16 % 1005,5 hPa 0,0 l/m 6,3 km/h (2 Bft) N 0 0 min 0,2 UV-I 1,2 C 1,7 C 9,2 km/h (2 Bft)
08.03.2013 13:00 2,7 C 11,1 C 4,1 C 3,1 C 3,1 C 0,4 C 90 % 90 % 11 % 1006,1 hPa 0,0 l/m 6,4 km/h (2 Bft) O 90 0 min 0,1 UV-I 1,2 C 1,4 C 10,9 km/h (2 Bft)
08.03.2013 13:05 2,7 C 11,1 C 4,2 C 3,3 C 3,3 C 0,6 C 90 % 90 % 16 % 1006,1 hPa 0,0 l/m 6,4 km/h (2 Bft) O-NO 67 0 min 0,2 UV-I 1,2 C 1,6 C 12,6 km/h (3 Bft)
08.03.2013 13:10 2,8 C 11,0 C 4,3 C 3,4 C 3,4 C 0,6 C 89 % 90 % 16 % 1006,1 hPa 0,0 l/m 7,1 km/h (2 Bft) O 90 0 min 0,3 UV-I 1,2 C 1,5 C 6,3 km/h (2 Bft)
08.03.2013 13:15 2,9 C 11,1 C 4,3 C 3,6 C 3,6 C 0,7 C 89 % 90 % 18 % 1006,1 hPa 0,0 l/m 6,3 km/h (2 Bft) O-NO 67 0 min 0,2 UV-I 1,3 C 2,0 C 6,0 km/h (2 Bft)
08.03.2013 13:20 2,8 C 11,1 C 4,4 C 4,3 C 4,3 C 1,5 C 89 % 90 % 39 % 1005,4 hPa 0,0 l/m 4,8 km/h (1 Bft) SO 135 0 min 0,2 UV-I 1,2 C 3,4 C 7,9 km/h (2 Bft)
08.03.2013 13:25 2,9 C 11,0 C 4,4 C 4,4 C 4,4 C 1,5 C 89 % 90 % 39 % 1005,4 hPa 0,0 l/m 4,8 km/h (1 Bft) O-SO 112 0 min 0,3 UV-I 1,3 C 3,5 C 2,6 km/h (1 Bft)
08.03.2013 13:30 2,9 C 11,1 C 4,4 C 4,3 C 4,3 C 1,4 C 89 % 90 % 37 % 1005,4 hPa 0,0 l/m 5,0 km/h (1 Bft) O 90 0 min 0,2 UV-I 1,3 C 3,3 C 5,8 km/h (2 Bft)
08.03.2013 13:35 2,9 C 11,0 C 4,4 C 4,4 C 4,4 C 1,5 C 89 % 90 % 39 % 1005,4 hPa 0,0 l/m 4,7 km/h (1 Bft) O-NO 67 0 min 0,2 UV-I 1,3 C 3,5 C 14,8 km/h (3 Bft)
08.03.2013 13:40 2,9 C 11,0 C 4,4 C 4,1 C 4,1 C 1,2 C 89 % 90 % 32 % 1005,6 hPa 0,0 l/m 5,6 km/h (1 Bft) O-NO 67 0 min 0,2 UV-I 1,3 C 2,8 C 4,7 km/h (1 Bft)
08.03.2013 13:45 3,0 C 11,0 C 4,4 C 4,2 C 4,2 C 1,2 C 89 % 89 % 32 % 1005,6 hPa 0,0 l/m 5,5 km/h (1 Bft) O-SO 112 0 min 0,2 UV-I 1,4 C 3,0 C 6,4 km/h (2 Bft)
08.03.2013 13:50 2,9 C 11,0 C 4,3 C 4,1 C 4,1 C 1,2 C 88 % 89 % 32 % 1005,6 hPa 0,0 l/m 5,8 km/h (2 Bft) O-NO 67 0 min 0,2 UV-I 1,1 C 2,8 C 9,5 km/h (2 Bft)
08.03.2013 13:55 2,9 C 11,0 C 4,4 C 3,7 C 3,7 C 0,8 C 88 % 89 % 21 % 1005,6 hPa 0,0 l/m 6,0 km/h (2 Bft) NO 45 0 min 0,1 UV-I 1,1 C 2,2 C 5,0 km/h (1 Bft)
08.03.2013 14:00 2,8 C 11,0 C 4,4 C 3,9 C 3,9 C 1,1 C 88 % 89 % 29 % 1005,2 hPa 0,0 l/m 5,3 km/h (1 Bft) SO 135 0 min 0,1 UV-I 1,0 C 2,7 C 4,3 km/h (1 Bft)
08.03.2013 14:05 2,8 C 11,0 C 4,3 C 4,2 C 4,2 C 1,4 C 88 % 89 % 37 % 1005,2 hPa 0,0 l/m 4,7 km/h (1 Bft) O-NO 67 0 min 0,1 UV-I 1,0 C 3,3 C 4,2 km/h (1 Bft)
08.03.2013 14:10 2,8 C 11,0 C 4,3 C 4,2 C 4,2 C 1,4 C 88 % 89 % 37 % 1005,2 hPa 0,0 l/m 4,7 km/h (1 Bft) O-NO 67 0 min 0,1 UV-I 1,0 C 3,3 C 7,7 km/h (2 Bft)
08.03.2013 14:15 2,8 C 11,0 C 4,3 C 3,9 C 3,9 C 1,1 C 88 % 89 % 29 % 1005,2 hPa 0,0 l/m 5,3 km/h (1 Bft) O 90 0 min 0,1 UV-I 1,0 C 2,7 C 4,8 km/h (1 Bft)
08.03.2013 14:20 2,8 C 11,0 C 4,2 C 3,9 C 3,9 C 1,1 C 88 % 89 % 29 % 1005,6 hPa 0,0 l/m 5,3 km/h (1 Bft) O-NO 67 0 min 0,1 UV-I 1,0 C 2,7 C 6,6 km/h (2 Bft)
08.03.2013 14:25 2,8 C 11,0 C 4,2 C 3,8 C 3,8 C 1,0 C 88 % 89 % 26 % 1005,6 hPa 0,0 l/m 5,0 km/h (1 Bft) O-NO 67 0 min 0,1 UV-I 1,0 C 2,7 C 6,9 km/h (2 Bft)
08.03.2013 14:30 2,8 C 11,0 C 4,2 C 4,0 C 4,0 C 1,2 C 88 % 89 % 32 % 1005,6 hPa 0,0 l/m 4,5 km/h (1 Bft) O-SO 112 0 min 0,1 UV-I 1,0 C 4,0 C 1,9 km/h (1 Bft)
08.03.2013 14:35 2,7 C 11,0 C 4,1 C 4,0 C 4,0 C 1,3 C 89 % 89 % 34 % 1005,6 hPa 0,0 l/m 4,5 km/h (1 Bft) O-NO 67 0 min 0,1 UV-I 1,1 C 4,0 C 5,8 km/h (2 Bft)
08.03.2013 14:40 2,7 C 10,9 C 4,0 C 3,8 C 3,8 C 1,1 C 88 % 89 % 29 % 1005,4 hPa 0,0 l/m 4,7 km/h (1 Bft) O 90 0 min 0,0 UV-I 0,9 C 2,8 C 6,4 km/h (2 Bft)
08.03.2013 14:45 2,7 C 10,9 C 3,9 C 2,8 C 2,8 C 0,1 C 88 % 89 % 3 % 1005,4 hPa 0,0 l/m 6,4 km/h (2 Bft) O-NO 67 0 min 0,0 UV-I 0,9 C 1,1 C 8,9 km/h (2 Bft)
08.03.2013 14:50 2,5 C 10,8 C 3,9 C 2,6 C 2,6 C 0,1 C 89 % 89 % 3 % 1005,4 hPa 0,0 l/m 6,8 km/h (2 Bft) O-NO 67 0 min 0,0 UV-I 0,9 C 0,7 C 8,4 km/h (2 Bft)
08.03.2013 14:55 2,5 C 10,9 C 3,7 C 2,7 C 2,7 C 0,2 C 89 % 89 % 5 % 1005,4 hPa 0,0 l/m 6,1 km/h (2 Bft) O 90 0 min 0,0 UV-I 0,9 C 1,0 C 4,7 km/h (1 Bft)
08.03.2013 15:00 2,4 C 10,8 C 3,7 C 3,0 C 3,0 C 0,6 C 89 % 89 % 16 % 1006,0 hPa 0,0 l/m 5,1 km/h (1 Bft) O-NO 67 0 min 0,0 UV-I 0,8 C 1,8 C 5,8 km/h (2 Bft)
08.03.2013 15:05 2,4 C 10,9 C 3,6 C 2,7 C 2,7 C 0,3 C 89 % 90 % 8 % 1006,0 hPa 0,0 l/m 5,6 km/h (1 Bft) O 90 0 min 0,0 UV-I 0,8 C 1,2 C 10,1 km/h (2 Bft)
08.03.2013 15:10 2,3 C 10,9 C 3,6 C 2,2 C 2,0 C 0,0 C 89 % 90 % 0 % 1006,0 hPa 0,0 l/m 6,9 km/h (2 Bft) O-NO 67 0 min 0,0 UV-I 0,7 C -0,0 C 4,8 km/h (1 Bft)
08.03.2013 15:15 2,2 C 10,8 C 3,5 C 2,1 C 1,8 C 0,0 C 89 % 90 % 0 % 1006,0 hPa 0,0 l/m 7,6 km/h (2 Bft) O-NO 67 0 min 0,0 UV-I 0,6 C -0,5 C 11,3 km/h (2 Bft)
08.03.2013 15:20 2,2 C 10,8 C 3,5 C 2,3 C 1,5 C 0,1 C 89 % 90 % 3 % 1005,7 hPa 0,0 l/m 8,0 km/h (2 Bft) O 90 0 min 0,0 UV-I 0,6 C -1,0 C 6,4 km/h (2 Bft)
08.03.2013 15:25 2,1 C 10,8 C 3,5 C 2,1 C 2,1 C 0,0 C 89 % 90 % 0 % 1005,7 hPa 0,0 l/m 6,1 km/h (2 Bft) O-NO 67 0 min 0,0 UV-I 0,5 C 0,4 C 5,5 km/h (1 Bft)
08.03.2013 15:30 2,2 C 10,8 C 3,4 C 2,8 C 2,8 C 0,6 C 89 % 90 % 16 % 1005,7 hPa 0,0 l/m 4,3 km/h (1 Bft) O-NO 67 0 min 0,0 UV-I 0,6 C 2,8 C 3,9 km/h (1 Bft)
08.03.2013 15:35 2,1 C 10,8 C 3,3 C 2,6 C 2,6 C 0,5 C 89 % 89 % 13 % 1005,7 hPa 0,0 l/m 4,5 km/h (1 Bft) O-NO 67 0 min 0,0 UV-I 0,5 C 2,6 C 5,8 km/h (2 Bft)
08.03.2013 15:40 2,0 C 10,8 C 3,2 C 2,2 C 2,2 C 0,2 C 89 % 89 % 5 % 1006,1 hPa 0,0 l/m 5,3 km/h (1 Bft) O-NO 67 0 min 0,0 UV-I 0,4 C 0,8 C 6,8 km/h (2 Bft)
08.03.2013 15:45 2,1 C 10,9 C 3,2 C 1,9 C 1,6 C 0,0 C 89 % 90 % 0 % 1006,1 hPa 0,0 l/m 6,8 km/h (2 Bft) O-SO 112 0 min 0,0 UV-I 0,5 C -0,5 C 6,3 km/h (2 Bft)
08.03.2013 15:50 2,0 C 10,8 C 3,2 C 1,9 C 1,7 C 0,0 C 89 % 90 % 0 % 1006,1 hPa 0,0 l/m 6,4 km/h (2 Bft) O 90 0 min 0,0 UV-I 0,4 C -0,2 C 11,1 km/h (2 Bft)
08.03.2013 15:55 2,0 C 10,8 C 3,1 C 1,9 C 1,7 C 0,0 C 89 % 90 % 0 % 1006,1 hPa 0,0 l/m 6,6 km/h (2 Bft) O-NO 67 0 min 0,0 UV-I 0,4 C -0,3 C 4,8 km/h (1 Bft)
08.03.2013 16:00 2,0 C 10,8 C 3,1 C 1,9 C 1,7 C 0,0 C 89 % 90 % 0 % 1006,1 hPa 0,0 l/m 6,1 km/h (2 Bft) O-SO 112 0 min 0,0 UV-I 0,4 C -0,1 C 5,6 km/h (1 Bft)
08.03.2013 16:05 1,9 C 10,8 C 3,1 C 2,1 C 2,1 C 0,2 C 89 % 90 % 5 % 1006,1 hPa 0,0 l/m 5,0 km/h (1 Bft) O-NO 67 0 min 0,0 UV-I 0,3 C 0,8 C 3,5 km/h (1 Bft)
08.03.2013 16:10 1,9 C 10,8 C 3,1 C 2,2 C 2,2 C 0,3 C 89 % 90 % 8 % 1006,1 hPa 0,0 l/m 4,5 km/h (1 Bft) O-NO 67 0 min 0,0 UV-I 0,3 C 2,2 C 3,7 km/h (1 Bft)
08.03.2013 16:15 1,9 C 10,8 C 2,9 C 2,7 C 2,7 C 0,8 C 89 % 90 % 21 % 1006,1 hPa 0,0 l/m 3,2 km/h (1 Bft) W-NW 292 0 min 0,0 UV-I 0,3 C 2,7 C 4,2 km/h (1 Bft)
08.03.2013 16:20 1,6 C 10,8 C 2,8 C 2,4 C 2,4 C 0,8 C 89 % 90 % 21 % 1006,1 hPa 0,0 l/m 3,2 km/h (1 Bft) O-SO 112 0 min 0,0 UV-I -0,0 C 2,4 C 5,1 km/h (1 Bft)
08.03.2013 16:25 1,4 C 10,8 C 2,6 C 2,3 C 2,3 C 0,9 C 89 % 90 % 24 % 1006,1 hPa 0,0 l/m 3,4 km/h (1 Bft) O-NO 67 0 min 0,0 UV-I -0,2 C 2,3 C 5,3 km/h (1 Bft)
08.03.2013 16:30 1,4 C 10,8 C 2,5 C 1,9 C 1,9 C 0,5 C 89 % 90 % 13 % 1006,1 hPa 0,0 l/m 3,7 km/h (1 Bft) O-NO 67 0 min 0,0 UV-I -0,2 C 1,9 C 4,7 km/h (1 Bft)
08.03.2013 16:35 1,3 C 10,8 C 2,4 C 1,8 C 1,8 C 0,5 C 89 % 90 % 13 % 1006,1 hPa 0,0 l/m 3,7 km/h (1 Bft) O 90 0 min 0,0 UV-I -0,3 C 1,8 C 4,3 km/h (1 Bft)
08.03.2013 16:40 1,2 C 10,8 C 2,4 C 1,4 C 1,4 C 0,2 C 90 % 90 % 5 % 1006,1 hPa 0,0 l/m 4,0 km/h (1 Bft) O 90 0 min 0,0 UV-I -0,3 C 1,4 C 4,5 km/h (1 Bft)
08.03.2013 16:45 1,1 C 10,8 C 2,3 C 1,4 C 1,4 C 0,3 C 90 % 91 % 8 % 1006,1 hPa 0,0 l/m 4,2 km/h (1 Bft) O-NO 67 0 min 0,0 UV-I -0,4 C 1,4 C 5,3 km/h (1 Bft)
08.03.2013 16:50 1,1 C 10,8 C 2,3 C 1,3 C 1,3 C 0,2 C 90 % 91 % 5 % 1006,1 hPa 0,0 l/m 4,2 km/h (1 Bft) O 90 0 min 0,0 UV-I -0,4 C 1,3 C 4,3 km/h (1 Bft)
08.03.2013 16:55 1,1 C 10,8 C 2,3 C 1,2 C 1,2 C 0,1 C 90 % 91 % 3 % 1006,1 hPa 0,0 l/m 4,2 km/h (1 Bft) O-NO 67 0 min 0,0 UV-I -0,4 C 1,2 C 5,8 km/h (2 Bft)
08.03.2013 17:00 1,0 C 10,8 C 2,1 C 1,3 C 1,3 C 0,3 C 90 % 91 % 8 % 1007,0 hPa 0,0 l/m 3,9 km/h (1 Bft) O 90 0 min 0,0 UV-I -0,5 C 1,3 C 5,6 km/h (1 Bft)
08.03.2013 17:05 0,9 C 10,8 C 2,1 C 1,0 C 1,0 C 0,1 C 90 % 91 % 3 % 1007,0 hPa 0,0 l/m 4,3 km/h (1 Bft) O-NO 67 0 min 0,0 UV-I -0,6 C 1,0 C 6,0 km/h (2 Bft)
08.03.2013 17:10 0,9 C 10,8 C 2,0 C 0,8 C 0,7 C 0,0 C 90 % 90 % 0 % 1007,0 hPa 0,0 l/m 4,7 km/h (1 Bft) O-NO 67 0 min 0,0 UV-I -0,6 C -0,7 C 5,1 km/h (1 Bft)
08.03.2013 17:15 0,8 C 10,8 C 2,0 C 0,8 C 0,7 C 0,0 C 90 % 91 % 0 % 1007,0 hPa 0,0 l/m 4,7 km/h (1 Bft) N-NO 22 0 min 0,0 UV-I -0,6 C -0,7 C 3,7 km/h (1 Bft)
08.03.2013 17:20 0,8 C 10,8 C 2,0 C 0,7 C 0,6 C 0,0 C 90 % 91 % 0 % 1006,4 hPa 0,0 l/m 4,7 km/h (1 Bft) O-NO 67 0 min 0,0 UV-I -0,6 C -0,8 C 4,2 km/h (1 Bft)
08.03.2013 17:25 0,8 C 10,8 C 2,0 C 0,7 C 0,5 C 0,0 C 90 % 91 % 0 % 1006,4 hPa 0,0 l/m 4,8 km/h (1 Bft) O 90 0 min 0,0 UV-I -0,6 C -0,9 C 8,0 km/h (2 Bft)
08.03.2013 17:30 0,8 C 10,8 C 1,9 C 0,7 C 0,4 C 0,0 C 91 % 91 % 0 % 1006,4 hPa 0,0 l/m 4,8 km/h (1 Bft) O-NO 67 0 min 0,0 UV-I -0,5 C -1,0 C 4,7 km/h (1 Bft)
08.03.2013 17:35 0,8 C 10,8 C 1,9 C 0,7 C 0,4 C 0,0 C 91 % 91 % 0 % 1006,4 hPa 0,0 l/m 5,0 km/h (1 Bft) O 90 0 min 0,0 UV-I -0,5 C -1,1 C 4,5 km/h (1 Bft)
08.03.2013 17:40 0,7 C 10,8 C 1,9 C 0,5 C 0,2 C 0,0 C 91 % 91 % 0 % 1006,2 hPa 0,0 l/m 5,0 km/h (1 Bft) O-NO 67 0 min 0,0 UV-I -0,6 C -1,4 C 5,6 km/h (1 Bft)
08.03.2013 17:45 0,7 C 10,8 C 1,8 C 0,6 C 0,3 C 0,0 C 91 % 91 % 0 % 1006,2 hPa 0,0 l/m 4,8 km/h (1 Bft) O-NO 67 0 min 0,0 UV-I -0,6 C -1,2 C 7,9 km/h (2 Bft)
08.03.2013 17:50 0,7 C 10,8 C 1,7 C 0,6 C 0,4 C 0,0 C 91 % 91 % 0 % 1006,2 hPa 0,0 l/m 4,7 km/h (1 Bft) O 90 0 min 0,0 UV-I -0,6 C -1,0 C 6,4 km/h (2 Bft)
08.03.2013 17:55 0,7 C 10,8 C 1,7 C 0,5 C 0,2 C 0,0 C 91 % 91 % 0 % 1006,2 hPa 0,0 l/m 5,1 km/h (1 Bft) O-NO 67 0 min 0,0 UV-I -0,6 C -1,4 C 6,4 km/h (2 Bft)
08.03.2013 18:00 0,5 C 10,8 C 1,6 C 0,2 C -0,3 C 0,0 C 91 % 91 % 0 % 1006,9 hPa 0,0 l/m 6,0 km/h (2 Bft) O-NO 67 0 min 0,0 UV-I -0,8 C -2,4 C 8,7 km/h (2 Bft)
08.03.2013 18:05 0,5 C 10,8 C 1,7 C 0,1 C -0,6 C 0,0 C 91 % 91 % 0 % 1006,9 hPa 0,0 l/m 6,4 km/h (2 Bft) O-SO 112 0 min 0,0 UV-I -0,8 C -2,9 C 9,0 km/h (2 Bft)
08.03.2013 18:10 0,4 C 10,8 C 1,5 C 0,0 C -0,9 C 0,0 C 91 % 92 % 0 % 1006,9 hPa 0,0 l/m 6,9 km/h (2 Bft) O-NO 67 0 min 0,0 UV-I -0,9 C -3,4 C 8,4 km/h (2 Bft)
08.03.2013 18:15 0,5 C 10,8 C 1,5 C 0,0 C -0,9 C 0,0 C 91 % 92 % 0 % 1006,9 hPa 0,0 l/m 7,1 km/h (2 Bft) O-NO 67 0 min 0,0 UV-I -0,8 C -3,5 C 16,6 km/h (3 Bft)
08.03.2013 18:20 0,4 C 10,8 C 1,5 C 0,2 C -0,2 C 0,0 C 91 % 92 % 0 % 1006,6 hPa 0,0 l/m 5,1 km/h (1 Bft) O 90 0 min 0,0 UV-I -0,9 C -1,9 C 4,8 km/h (1 Bft)
08.03.2013 18:25 0,4 C 10,8 C 1,5 C 0,6 C 0,6 C 0,2 C 91 % 92 % 0 % 1006,6 hPa 0,0 l/m 3,5 km/h (1 Bft) O-NO 67 0 min 0,0 UV-I -0,9 C 0,6 C 3,5 km/h (1 Bft)
08.03.2013 18:30 0,4 C 10,8 C 1,5 C 0,4 C 0,4 C 0,0 C 91 % 92 % 0 % 1006,6 hPa 0,0 l/m 3,7 km/h (1 Bft) O-NO 67 0 min 0,0 UV-I -0,9 C 0,4 C 5,5 km/h (1 Bft)
08.03.2013 18:35 0,3 C 10,8 C 1,4 C 0,4 C 0,4 C 0,1 C 91 % 92 % 0 % 1006,6 hPa 0,0 l/m 3,7 km/h (1 Bft) N-NO 22 0 min 0,0 UV-I -1,0 C 0,4 C 7,7 km/h (2 Bft)
08.03.2013 18:46 0,3 C 10,8 C 1,3 C 0,2 C 0,0 C 0,0 C 91 % 92 % 0 % 1007,1 hPa 0,0 l/m 4,3 km/h (1 Bft) N 0 0 min 0,0 UV-I -1,0 C 0,0 C 4,5 km/h (1 Bft)
08.03.2013 19:00 0,1 C 10,8 C 1,3 C 0,0 C -0,2 C 0,0 C 91 % 92 % 0 % 1007,2 hPa 0,0 l/m 4,5 km/h (1 Bft) O-NO 67 0 min 0,0 UV-I -1,2 C -0,2 C 3,4 km/h (1 Bft)
08.03.2013 19:05 0,1 C 10,8 C 1,1 C 0,1 C 0,0 C 0,0 C 91 % 92 % 0 % 1007,2 hPa 0,0 l/m 4,0 km/h (1 Bft) O 90 0 min 0,0 UV-I -1,2 C 0,0 C 3,5 km/h (1 Bft)
08.03.2013 19:10 0,0 C 10,8 C 1,1 C 0,0 C 0,0 C 0,0 C 91 % 92 % 0 % 1007,2 hPa 0,0 l/m 3,9 km/h (1 Bft) NO 45 0 min 0,0 UV-I -1,3 C 0,0 C 3,9 km/h (1 Bft)
08.03.2013 19:15 -0,1 C 10,8 C 1,0 C 0,1 C 0,1 C 0,2 C 91 % 92 % 0 % 1007,2 hPa 0,0 l/m 3,7 km/h (1 Bft) O-NO 67 0 min 0,0 UV-I -1,4 C 0,1 C 4,5 km/h (1 Bft)
08.03.2013 19:20 -0,1 C 10,7 C 1,1 C -0,2 C -0,3 C 0,0 C 91 % 92 % 0 % 1007,0 hPa 0,0 l/m 4,2 km/h (1 Bft) NO 45 0 min 0,0 UV-I -1,4 C -0,3 C 6,8 km/h (2 Bft)
08.03.2013 19:25 -0,1 C 10,7 C 1,1 C -0,2 C -0,5 C 0,0 C 91 % 92 % 0 % 1007,0 hPa 0,0 l/m 4,5 km/h (1 Bft) O-NO 67 0 min 0,0 UV-I -1,4 C -0,5 C 3,1 km/h (1 Bft)
08.03.2013 19:30 -0,1 C 10,7 C 1,1 C -0,1 C -0,1 C 0,0 C 91 % 92 % 0 % 1007,0 hPa 0,0 l/m 3,9 km/h (1 Bft) O 90 0 min 0,0 UV-I -1,4 C -0,1 C 3,2 km/h (1 Bft)
08.03.2013 19:35 -0,2 C 10,7 C 0,9 C 0,3 C 0,3 C 0,5 C 91 % 92 % 0 % 1007,0 hPa 0,0 l/m 3,1 km/h (1 Bft) O 90 0 min 0,0 UV-I -1,5 C 0,3 C 4,5 km/h (1 Bft)
08.03.2013 19:40 -0,1 C 10,7 C 0,9 C 0,3 C 0,3 C 0,4 C 91 % 92 % 0 % 1006,9 hPa 0,0 l/m 3,1 km/h (1 Bft) O-NO 67 0 min 0,0 UV-I -1,4 C 0,3 C 2,9 km/h (1 Bft)
08.03.2013 19:45 -0,3 C 10,7 C 0,8 C 0,3 C 0,3 C 0,6 C 92 % 92 % 0 % 1006,9 hPa 0,0 l/m 2,9 km/h (1 Bft) O-SO 112 0 min 0,0 UV-I -1,4 C 0,3 C 2,9 km/h (1 Bft)
08.03.2013 19:50 -0,3 C 10,7 C 0,8 C 0,1 C 0,1 C 0,4 C 91 % 92 % 0 % 1006,9 hPa 0,0 l/m 3,2 km/h (1 Bft) O-NO 67 0 min 0,0 UV-I -1,6 C 0,1 C 4,3 km/h (1 Bft)
08.03.2013 19:55 -0,3 C 10,7 C 0,9 C -0,2 C -0,2 C 0,1 C 92 % 92 % 0 % 1006,9 hPa 0,0 l/m 3,5 km/h (1 Bft) O 90 0 min 0,0 UV-I -1,4 C -0,2 C 7,7 km/h (2 Bft)
08.03.2013 20:00 -0,3 C 10,7 C 0,8 C -0,2 C -0,2 C 0,1 C 92 % 92 % 0 % 1006,9 hPa 0,0 l/m 3,5 km/h (1 Bft) NO 45 0 min 0,0 UV-I -1,4 C -0,2 C 4,3 km/h (1 Bft)
08.03.2013 20:05 -0,3 C 10,7 C 0,8 C -0,3 C -0,3 C 0,0 C 92 % 92 % 0 % 1006,9 hPa 0,0 l/m 3,7 km/h (1 Bft) O-NO 67 0 min 0,0 UV-I -1,4 C -0,3 C 5,3 km/h (1 Bft)
08.03.2013 20:10 -0,3 C 10,7 C 0,9 C -0,4 C -0,6 C 0,0 C 92 % 92 % 0 % 1006,9 hPa 0,0 l/m 4,2 km/h (1 Bft) O-NO 67 0 min 0,0 UV-I -1,4 C -0,6 C 4,5 km/h (1 Bft)
08.03.2013 20:15 -0,3 C 10,7 C 0,8 C -0,5 C -0,8 C 0,0 C 92 % 92 % 0 % 1006,9 hPa 0,0 l/m 4,5 km/h (1 Bft) O-NO 67 0 min 0,0 UV-I -1,4 C -0,8 C 3,5 km/h (1 Bft)
08.03.2013 20:20 -0,3 C 10,7 C 0,9 C -0,2 C -0,2 C 0,1 C 92 % 92 % 0 % 1007,1 hPa 0,0 l/m 3,7 km/h (1 Bft) O-SO 112 0 min 0,0 UV-I -1,4 C -0,2 C 3,2 km/h (1 Bft)
08.03.2013 20:25 -0,3 C 10,7 C 0,8 C -0,2 C -0,2 C 0,1 C 92 % 92 % 0 % 1007,1 hPa 0,0 l/m 3,5 km/h (1 Bft) O-NO 67 0 min 0,0 UV-I -1,4 C -0,2 C 4,8 km/h (1 Bft)
08.03.2013 20:30 -0,3 C 10,7 C 0,8 C -0,2 C -0,2 C 0,1 C 92 % 92 % 0 % 1007,1 hPa 0,0 l/m 3,5 km/h (1 Bft) O-NO 67 0 min 0,0 UV-I -1,4 C -0,2 C 3,5 km/h (1 Bft)
08.03.2013 20:35 -0,3 C 10,7 C 0,7 C -0,4 C -0,6 C 0,0 C 92 % 92 % 0 % 1007,1 hPa 0,0 l/m 4,0 km/h (1 Bft) O-NO 67 0 min 0,0 UV-I -1,4 C -0,6 C 4,3 km/h (1 Bft)
08.03.2013 20:40 -0,4 C 10,7 C 0,8 C -0,3 C -0,3 C 0,1 C 92 % 92 % 0 % 1007,1 hPa 0,0 l/m 3,7 km/h (1 Bft) O-NO 67 0 min 0,0 UV-I -1,5 C -0,3 C 7,4 km/h (2 Bft)
08.03.2013 20:45 -0,4 C 10,7 C 0,7 C -0,4 C -0,4 C 0,0 C 92 % 92 % 0 % 1007,1 hPa 0,0 l/m 3,9 km/h (1 Bft) O-NO 67 0 min 0,0 UV-I -1,5 C -0,4 C 4,5 km/h (1 Bft)
08.03.2013 20:50 -0,4 C 10,7 C 0,7 C -0,5 C -0,6 C 0,0 C 92 % 92 % 0 % 1007,1 hPa 0,0 l/m 4,2 km/h (1 Bft) O-NO 67 0 min 0,0 UV-I -1,5 C -0,6 C 3,5 km/h (1 Bft)
08.03.2013 20:55 -0,4 C 10,7 C 0,7 C -0,3 C -0,3 C 0,1 C 92 % 92 % 0 % 1007,1 hPa 0,0 l/m 3,7 km/h (1 Bft) O-NO 67 0 min 0,0 UV-I -1,5 C -0,3 C 4,7 km/h (1 Bft)
08.03.2013 21:00 -0,4 C 10,7 C 0,7 C 0,2 C 0,2 C 0,6 C 92 % 92 % 0 % 1007,5 hPa 0,0 l/m 2,9 km/h (1 Bft) O-NO 67 0 min 0,0 UV-I -1,5 C 0,2 C 1,6 km/h (1 Bft)
08.03.2013 21:05 -0,4 C 10,7 C 0,7 C 0,4 C 0,4 C 0,8 C 92 % 92 % 0 % 1007,5 hPa 0,0 l/m 2,6 km/h (1 Bft) O-NO 67 0 min 0,0 UV-I -1,5 C 0,4 C 2,7 km/h (1 Bft)
08.03.2013 21:10 -0,4 C 10,7 C 0,7 C 0,4 C 0,4 C 0,8 C 92 % 92 % 0 % 1007,5 hPa 0,0 l/m 2,6 km/h (1 Bft) O-NO 67 0 min 0,0 UV-I -1,5 C 0,4 C 4,7 km/h (1 Bft)
08.03.2013 21:15 -0,4 C 10,7 C 0,7 C -0,1 C -0,1 C 0,3 C 92 % 92 % 0 % 1007,5 hPa 0,0 l/m 3,1 km/h (1 Bft) O-NO 67 0 min 0,0 UV-I -1,5 C -0,1 C 3,4 km/h (1 Bft)
08.03.2013 21:20 -0,4 C 10,7 C 0,7 C -0,4 C -0,4 C 0,0 C 92 % 92 % 0 % 1006,9 hPa 0,0 l/m 3,5 km/h (1 Bft) O-NO 67 0 min 0,0 UV-I -1,5 C -0,4 C 3,4 km/h (1 Bft)
08.03.2013 21:25 -0,4 C 10,7 C 0,7 C -0,4 C -0,4 C 0,0 C 92 % 92 % 0 % 1006,9 hPa 0,0 l/m 3,7 km/h (1 Bft) O-SO 112 0 min 0,0 UV-I -1,5 C -0,4 C 5,0 km/h (1 Bft)
08.03.2013 21:30 -0,4 C 10,7 C 0,7 C -0,4 C -0,4 C 0,0 C 92 % 92 % 0 % 1006,9 hPa 0,0 l/m 3,7 km/h (1 Bft) O-NO 67 0 min 0,0 UV-I -1,5 C -0,4 C 2,9 km/h (1 Bft)
08.03.2013 21:35 -0,4 C 10,7 C 0,7 C -0,2 C -0,2 C 0,2 C 92 % 92 % 0 % 1006,9 hPa 0,0 l/m 3,5 km/h (1 Bft) O-NO 67 0 min 0,0 UV-I -1,5 C -0,2 C 4,3 km/h (1 Bft)
08.03.2013 21:40 -0,4 C 10,7 C 0,7 C 0,2 C 0,2 C 0,6 C 92 % 92 % 0 % 1007,2 hPa 0,0 l/m 2,9 km/h (1 Bft) O-NO 67 0 min 0,0 UV-I -1,5 C 0,2 C 2,6 km/h (1 Bft)
08.03.2013 21:45 -0,4 C 10,7 C 0,7 C 0,4 C 0,4 C 0,8 C 92 % 92 % 0 % 1007,2 hPa 0,0 l/m 2,6 km/h (1 Bft) O 90 0 min 0,0 UV-I -1,5 C 0,4 C 2,3 km/h (1 Bft)
08.03.2013 21:50 -0,4 C 10,7 C 0,7 C 0,5 C 0,5 C 0,9 C 92 % 92 % 0 % 1007,2 hPa 0,0 l/m 2,4 km/h (1 Bft) SO 135 0 min 0,0 UV-I -1,5 C 0,5 C 3,1 km/h (1 Bft)
08.03.2013 21:55 -0,3 C 10,7 C 0,7 C 0,5 C 0,5 C 0,8 C 92 % 92 % 0 % 1007,2 hPa 0,0 l/m 2,3 km/h (1 Bft) O-NO 67 0 min 0,0 UV-I -1,4 C 0,5 C 2,7 km/h (1 Bft)
08.03.2013 22:00 -0,3 C 10,7 C 0,7 C 0,3 C 0,3 C 0,6 C 92 % 92 % 0 % 1006,7 hPa 0,0 l/m 2,6 km/h (1 Bft) O-NO 67 0 min 0,0 UV-I -1,4 C 0,3 C 2,3 km/h (1 Bft)
08.03.2013 22:05 -0,3 C 10,7 C 0,7 C 0,4 C 0,4 C 0,7 C 92 % 92 % 0 % 1006,7 hPa 0,0 l/m 2,4 km/h (1 Bft) O-NO 67 0 min 0,0 UV-I -1,4 C 0,4 C 2,7 km/h (1 Bft)
08.03.2013 22:10 -0,5 C 10,7 C 0,7 C 0,3 C 0,3 C 0,8 C 92 % 92 % 0 % 1006,7 hPa 0,0 l/m 2,6 km/h (1 Bft) O-NO 67 0 min 0,0 UV-I -1,6 C 0,3 C 4,3 km/h (1 Bft)
08.03.2013 22:15 -0,5 C 10,7 C 0,7 C -0,3 C -0,3 C 0,2 C 92 % 92 % 0 % 1006,7 hPa 0,0 l/m 3,4 km/h (1 Bft) O-NO 67 0 min 0,0 UV-I -1,6 C -0,3 C 4,3 km/h (1 Bft)
08.03.2013 22:20 -0,3 C 10,7 C 0,7 C -0,3 C -0,4 C 0,0 C 92 % 92 % 0 % 1007,0 hPa 0,0 l/m 3,5 km/h (1 Bft) O-NO 67 0 min 0,0 UV-I -1,4 C -0,4 C 2,9 km/h (1 Bft)
08.03.2013 22:25 -0,5 C 10,7 C 0,7 C 0,1 C 0,1 C 0,6 C 92 % 93 % 0 % 1007,0 hPa 0,0 l/m 2,9 km/h (1 Bft) O-NO 67 0 min 0,0 UV-I -1,6 C 0,1 C 2,7 km/h (1 Bft)
08.03.2013 22:30 -0,3 C 10,7 C 0,8 C 0,4 C 0,4 C 0,7 C 92 % 92 % 0 % 1007,0 hPa 0,0 l/m 2,4 km/h (1 Bft) O-NO 67 0 min 0,0 UV-I -1,4 C 0,4 C 3,7 km/h (1 Bft)
08.03.2013 22:35 -0,4 C 10,7 C 0,7 C 0,4 C 0,4 C 0,8 C 92 % 93 % 0 % 1007,0 hPa 0,0 l/m 2,3 km/h (1 Bft) N-NO 22 0 min 0,0 UV-I -1,5 C 0,4 C 0,0 km/h (0 Bft)
08.03.2013 22:40 -0,5 C 10,7 C 0,7 C 0,2 C 0,2 C 0,7 C 92 % 93 % 0 % 1007,6 hPa 0,0 l/m 2,7 km/h (1 Bft) O-NO 67 0 min 0,0 UV-I -1,6 C 0,2 C 3,9 km/h (1 Bft)
08.03.2013 22:45 -0,5 C 10,7 C 0,7 C -0,2 C -0,2 C 0,3 C 92 % 92 % 0 % 1007,6 hPa 0,0 l/m 3,2 km/h (1 Bft) O-NO 67 0 min 0,0 UV-I -1,6 C -0,2 C 3,9 km/h (1 Bft)
08.03.2013 22:50 -0,5 C 10,7 C 0,7 C -0,5 C -0,6 C 0,0 C 92 % 93 % 0 % 1007,6 hPa 0,0 l/m 3,7 km/h (1 Bft) O-NO 67 0 min 0,0 UV-I -1,6 C -0,6 C 5,0 km/h (1 Bft)
08.03.2013 22:55 -0,5 C 10,3 C 0,6 C -0,5 C -0,5 C 0,0 C 92 % 93 % 0 % 1006,8 hPa 0,0 l/m 3,5 km/h (1 Bft) O 90 0 min 0,0 UV-I -1,6 C -0,5 C 3,7 km/h (1 Bft)
08.03.2013 23:00 -0,5 C 10,3 C 0,7 C -0,6 C -0,7 C 0,0 C 92 % 93 % 0 % 1006,8 hPa 0,0 l/m 3,9 km/h (1 Bft) O-NO 67 0 min 0,0 UV-I -1,6 C -0,7 C 10,3 km/h (2 Bft)
08.03.2013 23:05 -0,5 C 10,3 C 0,7 C -0,7 C -1,1 C 0,0 C 92 % 93 % 0 % 1006,8 hPa 0,0 l/m 4,7 km/h (1 Bft) O-NO 67 0 min 0,0 UV-I -1,6 C -2,7 C 8,9 km/h (2 Bft)
08.03.2013 23:10 -0,5 C 10,3 C 0,6 C -0,8 C -1,4 C 0,0 C 92 % 93 % 0 % 1006,8 hPa 0,0 l/m 5,3 km/h (1 Bft) O-NO 67 0 min 0,0 UV-I -1,6 C -3,3 C 7,9 km/h (2 Bft)
08.03.2013 23:15 -0,5 C 10,3 C 0,7 C -0,7 C -1,1 C 0,0 C 92 % 93 % 0 % 1007,0 hPa 0,0 l/m 4,7 km/h (1 Bft) O-NO 67 0 min 0,0 UV-I -1,6 C -2,7 C 3,4 km/h (1 Bft)
08.03.2013 23:20 -0,5 C 10,3 C 0,7 C -0,2 C -0,2 C 0,3 C 92 % 93 % 0 % 1007,0 hPa 0,0 l/m 3,1 km/h (1 Bft) O-NO 67 0 min 0,0 UV-I -1,6 C -0,2 C 4,2 km/h (1 Bft)
08.03.2013 23:25 -0,5 C 10,3 C 0,5 C 0,3 C 0,3 C 0,8 C 92 % 93 % 0 % 1007,0 hPa 0,0 l/m 2,4 km/h (1 Bft) O-NO 67 0 min 0,0 UV-I -1,6 C 0,3 C 2,6 km/h (1 Bft)
08.03.2013 23:30 -0,6 C 10,3 C 0,5 C -0,2 C -0,2 C 0,4 C 92 % 93 % 0 % 1007,0 hPa 0,0 l/m 3,1 km/h (1 Bft) NO 45 0 min 0,0 UV-I -1,7 C -0,2 C 4,3 km/h (1 Bft)
08.03.2013 23:35 -0,6 C 10,3 C 0,5 C -0,3 C -0,3 C 0,3 C 92 % 93 % 0 % 1006,9 hPa 0,0 l/m 3,2 km/h (1 Bft) O 90 0 min 0,0 UV-I -1,7 C -0,3 C 3,2 km/h (1 Bft)
08.03.2013 23:40 -0,6 C 10,3 C 0,5 C -0,3 C -0,3 C 0,3 C 92 % 93 % 0 % 1006,9 hPa 0,0 l/m 3,2 km/h (1 Bft) O-NO 67 0 min 0,0 UV-I -1,7 C -0,3 C 2,7 km/h (1 Bft)
08.03.2013 23:45 -0,6 C 10,3 C 0,5 C 0,3 C 0,3 C 0,9 C 92 % 93 % 0 % 1006,9 hPa 0,0 l/m 2,4 km/h (1 Bft) O-NO 67 0 min 0,0 UV-I -1,7 C 0,3 C 3,2 km/h (1 Bft)
08.03.2013 23:50 -0,6 C 10,3 C 0,5 C 0,1 C 0,1 C 0,7 C 92 % 93 % 0 % 1006,9 hPa 0,0 l/m 2,7 km/h (1 Bft) O-NO 67 0 min 0,0 UV-I -1,7 C 0,1 C 4,0 km/h (1 Bft)
08.03.2013 23:55 -0,5 C 10,3 C 0,5 C -0,3 C -0,3 C 0,2 C 92 % 93 % 0 % 1007,2 hPa 0,0 l/m 3,2 km/h (1 Bft) O-NO 67 0 min 0,0 UV-I -1,6 C -0,3 C 4,3 km/h (1 Bft)
_ Min-Zeit 23:30 22:55 23:25 23:10 23:10 03:25 13:50 13:45 00:00 07:00 - 05:50 - - - 00:00 23:30 18:15 00:10
Minimum _ -0,6 C 10,3 C 0,5 C -0,8 C -1,4 C 0,0 C 88 % 89 % 0 % 1004,2 hPa - 0,5 km/h (0 Bft) - - - 0,0 UV-I -1,7 C -3,5 C 0,0 km/h (0 Bft)
_ Max-Zeit 00:15 10:20 00:00 00:00 00:00 13:20 19:45 06:30 13:20 22:40 00:15 03:50 - - 07:00 12:30 01:00 00:00 18:15
Maximum _ 4,5 C 11,2 C 5,2 C 5,4 C 5,4 C 1,5 C 92 % 93 % 39 % 1007,6 hPa 0,7 l/m 8,0 km/h
O (2 Bft)
- - 14 min 0,3 UV-I 2,9 C 5,4 C 16,6 km/h
O-NO (3 Bft)
Durchschnitt _ 2,4 C 10,9 C 3,4 C 2,9 C 2,8 C 0,5 C 90 % 91 % 7 % 1005,7 hPa #0,7 l/m 4,2 km/h (1 Bft) O-NO - #39 min. 0,1 UV-I 0,9 C 2,2 C 5,4 km/h (1 Bft)
2013 www.wetterstation-wechselburg.de